Time;durP1;ratioP1;P1;durP2;ratioP2;P2;SDS_P1;SDS_P2;PMS_P1;PMS_P2;Temp;Humidity;BMP_temperature;BMP_pressure;BME280_temperature;BME280_humidity;BME280_pressure;Samples;Min_cycle;Max_cycle;Signal;HPM_P1;HPM_P2
2023/10/12 00:00:42;;;;;;;16.08;2.40;;;14.00;99.90;;;;;;4969488;28;20576;-58
2023/10/12 00:03:12;;;;;;;10.35;2.38;;;14.00;99.90;;;;;;4971917;28;20047;-58
2023/10/12 00:05:38;;;;;;;15.15;3.10;;;14.00;99.90;;;;;;4954362;28;20066;-58
2023/10/12 00:08:10;;;;;;;10.88;2.80;;;14.00;99.90;;;;;;4964747;28;20042;-58
2023/10/12 00:10:44;;;;;;;18.08;3.10;;;14.00;99.90;;;;;;4971869;28;20045;-58
2023/10/12 00:13:13;;;;;;;11.35;2.67;;;14.00;99.90;;;;;;4963011;28;20473;-58
2023/10/12 00:15:45;;;;;;;15.52;3.60;;;14.00;99.90;;;;;;4954102;28;20065;-57
2023/10/12 00:18:14;;;;;;;13.13;2.72;;;14.00;99.90;;;;;;4966599;28;20058;-57
2023/10/12 00:20:43;;;;;;;20.30;4.53;;;14.00;99.90;;;;;;4966266;28;20548;-57
2023/10/12 00:23:13;;;;;;;15.05;3.00;;;14.00;99.90;;;;;;4968212;28;20045;-56
2023/10/12 00:25:47;;;;;;;10.02;2.88;;;13.90;99.90;;;;;;4969471;28;20078;-58
2023/10/12 00:28:16;;;;;;;29.85;4.40;;;13.90;99.90;;;;;;4966852;28;20038;-57
2023/10/12 00:30:46;;;;;;;15.20;4.13;;;13.90;99.90;;;;;;4970936;28;20054;-57
2023/10/12 00:33:13;;;;;;;18.27;3.17;;;13.90;99.90;;;;;;4946760;28;22204;-58
2023/10/12 00:35:39;;;;;;;11.82;2.70;;;14.00;99.90;;;;;;4968104;28;20062;-57
2023/10/12 00:38:15;;;;;;;16.52;3.72;;;13.90;99.90;;;;;;4962580;28;20047;-57
2023/10/12 00:40:55;;;;;;;11.93;3.05;;;14.00;99.90;;;;;;4948187;28;20039;-57
2023/10/12 00:43:21;;;;;;;10.63;2.55;;;14.00;99.90;;;;;;4963718;28;20043;-57
2023/10/12 00:45:49;;;;;;;15.23;3.35;;;14.00;99.90;;;;;;4970561;28;20057;-57
2023/10/12 00:48:17;;;;;;;14.82;3.75;;;14.00;99.90;;;;;;4967487;28;20039;-57
2023/10/12 00:50:47;;;;;;;16.20;2.92;;;14.00;99.90;;;;;;4949872;28;20085;-57
2023/10/12 00:55:46;;;;;;;15.57;2.58;;;14.00;99.90;;;;;;4969178;28;20053;-57
2023/10/12 00:58:14;;;;;;;12.60;3.03;;;13.90;99.90;;;;;;4949661;28;20156;-57
2023/10/12 01:00:51;;;;;;;16.13;2.65;;;13.90;99.90;;;;;;4968397;28;20518;-57
2023/10/12 01:08:43;;;;;;;10.18;1.88;;;13.90;99.90;;;;;;4966413;28;20528;-57
2023/10/12 01:11:26;;;;;;;8.98;2.00;;;13.80;99.90;;;;;;4951665;28;20101;-58
2023/10/12 01:19:09;;;;;;;13.25;2.55;;;13.80;99.90;;;;;;4968659;28;20049;-58
2023/10/12 01:21:38;;;;;;;14.43;2.30;;;13.80;99.90;;;;;;4967923;28;20279;-58
2023/10/12 01:24:11;;;;;;;10.63;2.00;;;13.80;99.90;;;;;;4965648;28;20393;-57
2023/10/12 01:26:44;;;;;;;11.50;2.28;;;13.80;99.90;;;;;;4950493;28;20047;-58
2023/10/12 01:29:21;;;;;;;10.30;1.85;;;13.80;99.90;;;;;;4969426;28;20034;-57
2023/10/12 01:32:08;;;;;;;14.23;2.25;;;13.80;99.90;;;;;;4964603;28;20050;-57
2023/10/12 01:34:37;;;;;;;13.23;2.53;;;13.80;99.90;;;;;;4968906;28;20125;-57
2023/10/12 01:37:09;;;;;;;11.02;2.35;;;13.80;99.90;;;;;;4968858;28;20034;-57
2023/10/12 01:39:39;;;;;;;13.95;2.53;;;13.80;99.90;;;;;;4966437;28;20046;-56
2023/10/12 01:42:06;;;;;;;11.25;2.03;;;13.90;99.90;;;;;;4947606;28;20053;-56
2023/10/12 01:44:32;;;;;;;6.97;1.83;;;13.80;99.90;;;;;;4966962;28;20066;-57
2023/10/12 01:46:58;;;;;;;8.15;1.60;;;13.80;99.90;;;;;;4967001;28;20046;-57
2023/10/12 01:49:24;;;;;;;9.82;1.90;;;13.80;99.90;;;;;;4947975;28;20061;-57
2023/10/12 01:51:50;;;;;;;11.25;2.13;;;13.80;99.90;;;;;;4961180;28;20494;-56
2023/10/12 01:54:24;;;;;;;9.77;2.10;;;13.80;99.90;;;;;;4963631;28;20049;-58
2023/10/12 01:56:55;;;;;;;8.07;1.98;;;13.80;99.90;;;;;;4968014;28;20068;-57
2023/10/12 01:59:25;;;;;;;11.40;2.35;;;13.80;99.90;;;;;;4991224;23;20050;-58
2023/10/12 02:01:56;;;;;;;9.40;1.98;;;13.80;99.90;;;;;;5004331;28;20575;-58
2023/10/12 02:04:22;;;;;;;10.98;2.47;;;13.80;99.90;;;;;;4986667;28;20492;-57
2023/10/12 02:06:48;;;;;;;8.70;1.92;;;13.70;99.90;;;;;;5000077;28;20041;-58
2023/10/12 02:09:15;;;;;;;13.88;2.55;;;13.70;99.90;;;;;;5002615;28;20053;-58
2023/10/12 02:11:45;;;;;;;8.27;2.60;;;13.70;99.90;;;;;;5005376;28;20089;-58
2023/10/12 02:14:12;;;;;;;8.38;1.60;;;13.70;99.90;;;;;;4988822;28;20068;-57
2023/10/12 02:16:39;;;;;;;13.40;2.05;;;13.70;99.90;;;;;;5005793;28;20033;-55
2023/10/12 02:19:05;;;;;;;9.60;2.28;;;13.60;99.90;;;;;;5005220;28;20052;-58
2023/10/12 02:21:34;;;;;;;10.25;2.58;;;13.60;99.90;;;;;;5003208;28;20117;-58
2023/10/12 02:26:36;;;;;;;9.82;2.28;;;13.60;99.90;;;;;;5004402;28;20046;-57
2023/10/12 02:31:45;;;;;;;19.13;2.88;;;13.60;99.90;;;;;;5003067;28;20077;-58
2023/10/12 02:34:17;;;;;;;12.70;2.17;;;13.60;99.90;;;;;;5002151;28;20050;-57
2023/10/12 02:39:40;;;;;;;9.75;1.80;;;13.50;99.90;;;;;;5002738;28;20050;-58
2023/10/12 02:47:24;;;;;;;8.38;2.03;;;13.50;99.90;;;;;;5005075;28;20049;-57
2023/10/12 02:50:00;;;;;;;9.57;2.40;;;13.40;99.90;;;;;;5003081;28;20125;-57
2023/10/12 02:52:31;;;;;;;10.10;1.70;;;13.40;99.90;;;;;;4989315;28;20121;-58
2023/10/12 02:55:25;;;;;;;17.90;3.08;;;13.40;99.90;;;;;;5000254;28;20057;-58
2023/10/12 02:58:06;;;;;;;12.88;2.00;;;13.40;99.90;;;;;;5001930;28;20428;-58
2023/10/12 03:00:43;;;;;;;9.35;1.70;;;13.40;99.90;;;;;;5000021;28;20100;-58
2023/10/12 03:03:22;;;;;;;9.55;2.08;;;13.40;99.90;;;;;;5003278;28;20044;-58
2023/10/12 03:05:49;;;;;;;7.10;1.92;;;13.40;99.90;;;;;;5004459;28;20126;-58
2023/10/12 03:08:19;;;;;;;7.05;2.00;;;13.40;99.90;;;;;;5004632;28;20420;-56
2023/10/12 03:13:35;;;;;;;9.43;2.28;;;13.40;99.90;;;;;;4995357;28;20532;-58
2023/10/12 03:18:37;;;;;;;9.73;1.95;;;13.30;99.90;;;;;;5007854;28;20074;-58
2023/10/12 03:21:11;;;;;;;8.65;1.70;;;13.30;99.90;;;;;;5008061;28;20533;-57
2023/10/12 03:23:38;;;;;;;11.38;2.25;;;13.20;99.90;;;;;;5024386;28;20061;-56
2023/10/12 03:26:16;;;;;;;8.35;2.28;;;13.20;99.90;;;;;;5006643;28;20390;-58
2023/10/12 03:28:44;;;;;;;12.48;2.88;;;13.20;99.90;;;;;;5008737;28;20500;-57
2023/10/12 03:31:23;;;;;;;6.88;2.20;;;13.30;99.90;;;;;;5008616;28;20045;-58
2023/10/12 03:33:54;;;;;;;11.57;2.28;;;13.30;99.90;;;;;;5005352;28;20648;-57
2023/10/12 03:36:36;;;;;;;8.98;1.75;;;13.20;99.90;;;;;;5003482;28;20532;-56
2023/10/12 03:39:25;;;;;;;9.00;2.00;;;13.20;99.90;;;;;;5006803;28;20497;-58
2023/10/12 03:44:49;;;;;;;11.13;1.95;;;13.20;99.90;;;;;;5007526;28;20077;-56
2023/10/12 03:52:29;;;;;;;8.40;2.17;;;13.10;99.90;;;;;;5006338;28;20056;-58
2023/10/12 04:08:00;;;;;;;13.60;2.55;;;13.00;99.90;;;;;;4999164;28;20049;-59
2023/10/12 04:13:09;;;;;;;10.70;1.83;;;12.90;99.90;;;;;;5007615;28;20093;-57
2023/10/12 04:18:28;;;;;;;10.65;2.47;;;12.90;99.90;;;;;;4966305;28;20497;-58
2023/10/12 04:20:57;;;;;;;7.00;1.80;;;12.90;99.90;;;;;;5005602;28;20042;-59
2023/10/12 04:27:00;;;;;;;9.63;2.95;;;12.90;99.90;;;;;;5006725;28;20124;-56
2023/10/12 04:28:53;;;;;;;9.65;2.40;;;12.80;99.90;;;;;;4998994;28;20155;-58
2023/10/12 04:31:27;;;;;;;10.60;2.10;;;12.80;99.90;;;;;;5006945;28;20069;-58
2023/10/12 04:34:06;;;;;;;8.15;1.83;;;12.80;99.90;;;;;;5015375;28;20077;-57
2023/10/12 04:39:24;;;;;;;10.75;2.55;;;12.80;99.90;;;;;;5000514;28;20407;-58
2023/10/12 04:46:59;;;;;;;10.32;2.40;;;12.80;99.90;;;;;;5005185;28;20552;-56
2023/10/12 04:49:54;;;;;;;10.07;2.30;;;12.80;99.90;;;;;;5003398;28;20054;-56
2023/10/12 04:54:59;;;;;;;10.85;2.28;;;12.70;99.90;;;;;;5006025;28;20149;-57
2023/10/12 04:57:38;;;;;;;5.90;2.30;;;12.70;99.90;;;;;;5000648;28;20072;-58
2023/10/12 05:05:37;;;;;;;8.63;3.45;;;12.70;99.90;;;;;;5005125;28;20049;-58
2023/10/12 05:08:01;;;;;;;14.52;2.40;;;12.70;99.90;;;;;;5000414;28;20552;-58
2023/10/12 05:13:04;;;;;;;8.35;2.15;;;12.70;99.90;;;;;;5001121;28;20222;-56
2023/10/12 05:18:21;;;;;;;11.50;2.67;;;12.70;99.90;;;;;;5012477;28;20064;-57
2023/10/12 05:20:47;;;;;;;9.90;2.30;;;12.70;99.90;;;;;;4988760;28;20050;-57
2023/10/12 05:23:13;;;;;;;9.00;2.30;;;12.70;99.90;;;;;;4988052;28;20555;-58
2023/10/12 05:25:50;;;;;;;9.68;2.60;;;12.70;99.90;;;;;;5004672;28;20049;-58
2023/10/12 05:28:18;;;;;;;7.63;1.55;;;12.60;99.90;;;;;;5004509;28;20509;-56
2023/10/12 05:30:59;;;;;;;7.18;1.77;;;12.60;99.90;;;;;;5004374;28;20045;-56
2023/10/12 05:36:05;;;;;;;13.27;2.45;;;12.50;99.90;;;;;;5005732;28;20042;-58
2023/10/12 05:38:37;;;;;;;8.15;1.92;;;12.40;99.90;;;;;;5000107;28;20038;-57
2023/10/12 05:41:04;;;;;;;10.13;2.00;;;12.40;99.90;;;;;;5002436;28;20096;-57
2023/10/12 05:43:33;;;;;;;9.80;2.03;;;12.40;99.90;;;;;;5004971;28;20100;-58
2023/10/12 05:46:21;;;;;;;7.43;1.60;;;12.30;99.90;;;;;;5005780;28;20117;-58
2023/10/12 05:48:46;;;;;;;9.25;1.85;;;12.30;99.90;;;;;;5000436;28;20050;-59
2023/10/12 05:51:14;;;;;;;11.82;2.10;;;12.30;99.90;;;;;;4988840;28;20121;-58
2023/10/12 05:53:40;;;;;;;12.52;1.85;;;12.20;99.90;;;;;;5004588;28;20149;-58
2023/10/12 05:56:06;;;;;;;8.95;2.13;;;12.20;99.90;;;;;;4989384;28;20120;-58
2023/10/12 05:58:34;;;;;;;8.70;2.38;;;12.20;99.90;;;;;;5003078;28;20046;-59
2023/10/12 06:01:08;;;;;;;6.95;1.70;;;12.10;99.90;;;;;;4985364;28;20042;-58
2023/10/12 06:03:46;;;;;;;10.77;2.45;;;12.10;99.90;;;;;;4983762;28;20040;-58
2023/10/12 06:06:12;;;;;;;7.78;1.95;;;12.10;99.90;;;;;;4983453;28;20528;-58
2023/10/12 06:08:40;;;;;;;10.65;2.70;;;12.10;99.90;;;;;;4999950;28;20041;-58
2023/10/12 06:11:09;;;;;;;9.65;2.20;;;12.00;99.90;;;;;;5003281;28;20428;-58
2023/10/12 06:13:42;;;;;;;8.73;1.73;;;12.00;99.90;;;;;;4987323;28;20073;-58
2023/10/12 06:16:14;;;;;;;6.30;2.13;;;12.00;99.90;;;;;;5001018;28;20041;-56
2023/10/12 06:18:44;;;;;;;4.40;1.90;;;12.00;99.90;;;;;;5005315;28;20601;-57
2023/10/12 06:21:17;;;;;;;8.15;2.13;;;11.90;99.90;;;;;;5006350;28;20206;-57
2023/10/12 06:23:49;;;;;;;9.88;2.38;;;11.90;99.90;;;;;;4998960;28;20046;-57
2023/10/12 06:26:34;;;;;;;8.73;1.98;;;11.90;99.90;;;;;;4966024;28;20050;-58
2023/10/12 06:29:01;;;;;;;6.15;2.15;;;11.90;99.90;;;;;;4987480;28;20050;-56
2023/10/12 06:31:30;;;;;;;6.55;2.15;;;11.90;99.90;;;;;;5004091;28;20042;-58
2023/10/12 06:33:59;;;;;;;9.07;1.60;;;11.90;99.90;;;;;;4999743;28;20512;-56
2023/10/12 06:36:37;;;;;;;8.00;1.30;;;11.90;99.90;;;;;;5002134;28;20041;-58
2023/10/12 06:44:22;;;;;;;12.38;2.00;;;12.00;99.90;;;;;;5000627;28;20042;-58
2023/10/12 06:46:49;;;;;;;16.05;6.60;;;12.10;99.90;;;;;;5003998;28;20049;-57
2023/10/12 06:49:18;;;;;;;11.35;5.55;;;12.20;99.90;;;;;;5005156;28;20492;-57
2023/10/12 06:52:09;;;;;;;9.38;4.07;;;12.40;99.90;;;;;;5004951;28;20104;-57
2023/10/12 07:02:29;;;;;;;7.60;2.25;;;13.20;99.90;;;;;;5004652;28;20283;-57
2023/10/12 07:04:55;;;;;;;6.47;2.10;;;13.10;99.90;;;;;;5003288;28;20046;-57
2023/10/12 07:07:29;;;;;;;8.48;2.30;;;12.90;99.90;;;;;;5000535;28;20045;-58
2023/10/12 07:10:13;;;;;;;10.80;2.35;;;12.90;99.90;;;;;;5003033;28;20053;-58
2023/10/12 07:12:52;;;;;;;9.25;1.88;;;12.90;99.90;;;;;;5004757;28;20042;-58
2023/10/12 07:15:22;;;;;;;10.52;2.00;;;12.90;99.90;;;;;;4985911;28;20037;-55
2023/10/12 07:17:54;;;;;;;8.70;1.98;;;13.00;99.90;;;;;;5004921;28;20078;-58
2023/10/12 07:23:05;;;;;;;15.02;2.42;;;13.20;99.90;;;;;;4999556;28;20058;-58
2023/10/12 07:25:35;;;;;;;11.80;2.25;;;13.20;99.90;;;;;;5003142;28;20049;-58
2023/10/12 07:28:02;;;;;;;9.85;2.33;;;13.30;99.90;;;;;;4988095;28;20752;-58
2023/10/12 07:30:33;;;;;;;10.00;1.98;;;13.30;99.90;;;;;;5001213;28;20600;-58
2023/10/12 07:33:05;;;;;;;12.35;2.22;;;13.50;99.90;;;;;;5000375;28;20052;-59
2023/10/12 07:35:36;;;;;;;10.80;2.05;;;13.60;99.90;;;;;;5005223;28;20038;-58
2023/10/12 07:38:14;;;;;;;11.35;2.25;;;13.60;99.90;;;;;;4999511;28;20038;-58
2023/10/12 07:40:56;;;;;;;8.35;2.50;;;13.70;99.90;;;;;;5000343;28;20433;-58
2023/10/12 07:43:25;;;;;;;7.35;1.98;;;13.80;99.90;;;;;;5004969;28;20037;-58
2023/10/12 07:45:52;;;;;;;13.73;2.13;;;13.90;99.90;;;;;;5006331;28;20046;-58
2023/10/12 07:48:32;;;;;;;8.32;1.90;;;13.90;99.90;;;;;;4991110;28;20527;-58
2023/10/12 07:51:15;;;;;;;8.73;2.25;;;14.00;99.90;;;;;;5003430;28;20066;-58
2023/10/12 07:53:57;;;;;;;12.60;2.85;;;14.00;99.90;;;;;;4993428;28;20045;-58
2023/10/12 07:56:23;;;;;;;5.90;1.95;;;14.10;99.90;;;;;;5004964;28;20045;-59
2023/10/12 07:58:57;;;;;;;9.68;3.78;;;14.10;99.90;;;;;;5001425;28;20042;-60
2023/10/12 08:03:58;;;;;;;8.70;2.35;;;14.10;99.90;;;;;;5005921;28;20046;-58
2023/10/12 08:06:42;;;;;;;11.32;1.65;;;14.10;99.90;;;;;;5001226;28;20073;-57
2023/10/12 08:11:55;;;;;;;7.22;1.75;;;14.10;99.90;;;;;;5017832;28;20549;-59
2023/10/12 08:19:44;;;;;;;10.43;1.90;;;14.20;99.90;;;;;;5006320;28;20046;-60
2023/10/12 08:24:58;;;;;;;11.77;2.20;;;14.20;99.90;;;;;;5006346;28;20054;-59
2023/10/12 08:27:25;;;;;;;9.95;2.25;;;14.20;99.90;;;;;;4991351;28;20050;-60
2023/10/12 08:37:26;;;;;;;9.07;1.98;;;14.20;99.90;;;;;;4996622;28;20050;-58
2023/10/12 08:44:54;;;;;;;11.60;2.42;;;14.20;99.90;;;;;;5004321;28;20366;-57
2023/10/12 08:47:25;;;;;;;9.77;2.00;;;14.20;99.90;;;;;;5002562;28;20054;-58
2023/10/12 08:50:02;;;;;;;14.07;2.72;;;14.20;99.90;;;;;;4999936;28;20125;-58
2023/10/12 08:52:31;;;;;;;8.77;1.70;;;14.30;99.90;;;;;;5004756;28;20509;-56
2023/10/12 08:55:14;;;;;;;9.73;2.35;;;14.40;99.90;;;;;;5003256;28;20255;-58
2023/10/12 08:57:52;;;;;;;8.13;1.85;;;14.40;99.90;;;;;;5005515;28;20060;-58
2023/10/12 09:02:52;;;;;;;6.88;1.90;;;14.60;99.90;;;;;;5004625;28;20401;-57
2023/10/12 09:05:28;;;;;;;11.13;2.08;;;14.60;99.90;;;;;;5000637;28;20350;-58
2023/10/12 09:11:02;;;;;;;9.05;2.65;;;14.70;99.90;;;;;;5005058;28;20046;-57
2023/10/12 09:13:37;;;;;;;10.38;1.70;;;14.80;99.90;;;;;;5003783;28;20065;-56
2023/10/12 09:16:10;;;;;;;7.32;1.60;;;15.00;99.90;;;;;;5004412;28;20129;-56
2023/10/12 09:18:44;;;;;;;11.52;2.75;;;15.00;99.90;;;;;;4988815;28;20740;-59
2023/10/12 09:26:46;;;;;;;9.30;1.67;;;15.20;99.90;;;;;;5005078;28;20516;-60
2023/10/12 09:29:23;;;;;;;8.82;1.60;;;15.30;99.90;;;;;;5007708;28;20053;-55
2023/10/12 09:32:14;;;;;;;9.77;1.83;;;15.40;99.90;;;;;;4991815;28;20105;-59
2023/10/12 09:34:42;;;;;;;11.05;1.77;;;15.40;99.90;;;;;;5005992;28;20077;-60
2023/10/12 09:37:16;;;;;;;8.30;1.98;;;15.50;99.90;;;;;;5002824;28;20034;-59
2023/10/12 09:39:42;;;;;;;9.93;1.58;;;15.60;99.90;;;;;;4996493;28;20352;-56
2023/10/12 09:42:13;;;;;;;8.43;2.05;;;15.80;99.90;;;;;;4998776;28;20048;-59
2023/10/12 09:44:40;;;;;;;14.40;2.10;;;15.80;99.90;;;;;;5004468;28;20513;-56
2023/10/12 09:47:15;;;;;;;9.38;1.88;;;15.70;99.90;;;;;;4984636;28;20485;-58
2023/10/12 09:49:53;;;;;;;12.05;2.30;;;15.70;99.90;;;;;;4996743;28;20062;-56
2023/10/12 09:52:22;;;;;;;8.13;1.55;;;15.70;99.90;;;;;;5005562;28;20120;-56
2023/10/12 09:55:00;;;;;;;5.22;1.50;;;16.00;99.90;;;;;;4984964;28;20382;-56
2023/10/12 09:57:26;;;;;;;5.72;1.65;;;16.20;99.90;;;;;;5000990;28;20523;-57
2023/10/12 09:59:53;;;;;;;7.82;1.70;;;16.30;99.90;;;;;;4998819;28;20276;-58
2023/10/12 10:02:29;;;;;;;11.40;1.98;;;16.50;99.90;;;;;;5000617;28;20326;-57
2023/10/12 10:05:11;;;;;;;9.40;1.50;;;16.70;99.90;;;;;;5000296;28;20380;-57
2023/10/12 10:08:02;;;;;;;8.23;1.95;;;16.90;99.90;;;;;;5000818;28;20134;-57
2023/10/12 10:10:31;;;;;;;10.25;2.22;;;17.10;99.90;;;;;;4987556;28;20073;-59
2023/10/12 10:13:02;;;;;;;8.40;1.80;;;17.10;99.90;;;;;;5005276;28;20077;-57
2023/10/12 10:15:44;;;;;;;5.72;1.35;;;16.90;99.90;;;;;;4983621;28;20038;-58
2023/10/12 10:18:16;;;;;;;9.50;2.17;;;16.90;99.90;;;;;;5003185;28;20563;-57
2023/10/12 10:20:56;;;;;;;7.22;1.70;;;17.00;99.90;;;;;;5003388;28;20145;-58
2023/10/12 10:23:24;;;;;;;5.25;1.65;;;17.00;99.90;;;;;;4999742;28;20070;-57
2023/10/12 10:26:13;;;;;;;10.63;1.55;;;17.20;99.90;;;;;;5001733;28;20129;-57
2023/10/12 10:28:48;;;;;;;5.93;1.65;;;17.20;99.90;;;;;;4998441;28;20451;-56
2023/10/12 10:31:43;;;;;;;12.82;2.80;;;17.20;99.90;;;;;;4987340;28;20049;-57
2023/10/12 10:34:14;;;;;;;11.00;2.47;;;17.10;99.90;;;;;;5003969;28;20042;-59
2023/10/12 10:36:44;;;;;;;10.70;2.35;;;17.00;99.90;;;;;;5001006;28;20523;-57
2023/10/12 10:41:55;;;;;;;8.52;2.10;;;17.10;99.90;;;;;;5000127;28;20080;-57
2023/10/12 10:44:22;;;;;;;9.80;1.60;;;17.20;99.90;;;;;;5004772;28;20572;-58
2023/10/12 10:46:54;;;;;;;6.95;1.60;;;17.20;99.90;;;;;;5005504;28;20050;-57
2023/10/12 10:49:20;;;;;;;9.88;1.70;;;17.20;99.90;;;;;;4997059;28;20072;-59
2023/10/12 10:52:03;;;;;;;12.80;2.60;;;17.20;99.90;;;;;;5005524;28;20050;-56
2023/10/12 10:54:39;;;;;;;12.20;2.75;;;17.20;99.90;;;;;;4988623;28;20073;-59
2023/10/12 10:57:24;;;;;;;7.57;1.52;;;17.10;99.90;;;;;;5003514;28;20477;-56
2023/10/12 10:59:51;;;;;;;8.93;2.67;;;17.00;99.90;;;;;;5018312;28;20041;-59
2023/10/12 11:02:20;;;;;;;7.95;2.10;;;16.90;99.90;;;;;;5005354;28;20467;-55
2023/10/12 11:04:46;;;;;;;7.85;1.98;;;16.90;99.90;;;;;;5004779;28;20042;-57
2023/10/12 11:07:15;;;;;;;7.32;1.88;;;16.90;99.90;;;;;;5002486;28;20044;-59
2023/10/12 11:10:31;;;;;;;7.43;1.55;;;16.90;99.90;;;;;;5002054;28;20097;-58
2023/10/12 11:12:36;;;;;;;9.13;1.98;;;16.80;99.90;;;;;;4998939;28;20044;-58
2023/10/12 11:15:11;;;;;;;8.32;1.88;;;16.70;99.90;;;;;;4999215;28;20046;-58
2023/10/12 11:17:56;;;;;;;8.30;1.70;;;16.70;99.90;;;;;;5006705;28;20084;-58
2023/10/12 11:20:27;;;;;;;10.57;2.10;;;16.60;99.90;;;;;;4994041;28;20034;-59
2023/10/12 11:22:57;;;;;;;6.75;1.70;;;16.60;99.90;;;;;;5005712;28;20081;-59
2023/10/12 11:25:26;;;;;;;10.25;2.10;;;16.70;99.90;;;;;;4987481;28;20038;-56
2023/10/12 11:27:53;;;;;;;10.02;2.33;;;16.80;99.90;;;;;;5003753;28;20747;-56
2023/10/12 11:30:35;;;;;;;8.48;2.22;;;16.80;99.90;;;;;;5001790;28;20044;-57
2023/10/12 11:33:06;;;;;;;6.65;1.58;;;16.80;99.90;;;;;;4991107;28;20048;-60
2023/10/12 11:35:40;;;;;;;7.45;1.70;;;16.80;99.90;;;;;;5005532;28;20099;-58
2023/10/12 11:38:19;;;;;;;8.40;1.73;;;16.80;99.90;;;;;;5001941;28;20041;-59
2023/10/12 11:40:52;;;;;;;9.00;2.03;;;16.80;99.90;;;;;;4989208;28;20079;-58
2023/10/12 11:43:21;;;;;;;7.03;2.30;;;16.70;99.90;;;;;;5002760;28;20389;-58
2023/10/12 11:46:01;;;;;;;7.75;2.20;;;16.80;99.90;;;;;;5020724;28;20519;-56
2023/10/12 11:48:28;;;;;;;7.38;1.70;;;16.90;99.90;;;;;;5005325;28;20089;-59
2023/10/12 11:50:55;;;;;;;6.65;2.00;;;16.80;99.90;;;;;;5004855;28;20046;-58
2023/10/12 11:53:21;;;;;;;9.55;2.00;;;16.80;99.90;;;;;;5007671;28;20042;-58
2023/10/12 11:55:50;;;;;;;9.70;1.80;;;16.80;99.90;;;;;;5007913;28;20045;-59
2023/10/12 11:58:19;;;;;;;9.23;1.85;;;16.80;99.90;;;;;;5007803;28;20045;-58
2023/10/12 12:00:48;;;;;;;5.70;1.70;;;16.80;99.90;;;;;;5003187;28;20049;-56
2023/10/12 12:03:15;;;;;;;12.18;2.03;;;16.70;99.90;;;;;;5005468;28;20330;-59
2023/10/12 12:05:51;;;;;;;9.63;2.20;;;16.70;99.90;;;;;;5004442;28;20497;-57
2023/10/12 12:08:24;;;;;;;9.57;2.10;;;16.70;99.90;;;;;;5000541;28;20049;-56
2023/10/12 12:10:55;;;;;;;12.70;1.90;;;16.60;99.90;;;;;;5006265;28;20053;-58
2023/10/12 12:13:21;;;;;;;15.55;3.05;;;16.70;99.90;;;;;;4990367;28;20100;-56
2023/10/12 12:15:47;;;;;;;11.95;2.97;;;16.70;99.90;;;;;;5004281;28;20050;-58
2023/10/12 12:18:20;;;;;;;8.35;2.05;;;16.70;99.90;;;;;;5006155;28;20280;-58
2023/10/12 12:20:56;;;;;;;7.82;2.05;;;16.60;99.90;;;;;;5004498;28;20467;-59
2023/10/12 12:23:33;;;;;;;6.55;1.90;;;16.50;99.90;;;;;;5007487;28;20378;-58
2023/10/12 12:26:07;;;;;;;5.72;1.40;;;16.40;99.90;;;;;;5006486;28;20535;-57
2023/10/12 12:28:43;;;;;;;8.27;1.55;;;16.40;99.90;;;;;;5003171;28;20129;-58
2023/10/12 12:31:13;;;;;;;8.10;1.70;;;16.40;99.90;;;;;;5006690;28;20098;-58
2023/10/12 12:33:43;;;;;;;8.02;1.90;;;16.40;99.90;;;;;;5003259;28;20077;-59
2023/10/12 12:36:13;;;;;;;9.50;2.00;;;16.40;99.90;;;;;;5002694;28;20060;-59
2023/10/12 12:41:18;;;;;;;6.32;1.60;;;16.30;99.90;;;;;;5003371;28;20139;-57
2023/10/12 12:43:48;;;;;;;10.00;2.63;;;16.30;99.90;;;;;;5003480;28;20412;-58
2023/10/12 12:46:14;;;;;;;9.23;1.85;;;16.30;99.90;;;;;;4989149;28;20133;-59
2023/10/12 12:48:41;;;;;;;11.65;2.38;;;16.30;99.90;;;;;;5007439;28;20540;-56
2023/10/12 12:51:11;;;;;;;6.78;1.85;;;16.20;99.90;;;;;;5001832;28;20041;-55
2023/10/12 12:53:37;;;;;;;8.55;2.13;;;16.20;99.90;;;;;;5002594;28;20086;-57
2023/10/12 12:56:04;;;;;;;12.38;2.42;;;16.30;99.90;;;;;;5005756;28;20038;-57
2023/10/12 12:58:32;;;;;;;17.85;3.47;;;16.30;99.90;;;;;;4987970;28;20441;-58
2023/10/12 13:01:00;;;;;;;9.52;2.47;;;16.30;99.90;;;;;;4986898;28;20038;-57
2023/10/12 13:03:28;;;;;;;9.25;1.88;;;16.30;99.90;;;;;;5004452;28;20124;-57
2023/10/12 13:05:54;;;;;;;10.27;1.83;;;16.30;99.90;;;;;;5002645;28;20041;-59
2023/10/12 13:08:20;;;;;;;8.77;1.73;;;16.30;99.90;;;;;;5003038;28;20125;-58
2023/10/12 13:10:46;;;;;;;7.78;1.70;;;16.30;99.90;;;;;;5005309;28;20056;-58
2023/10/12 13:13:14;;;;;;;9.00;2.00;;;16.20;99.90;;;;;;4988245;28;20045;-56
2023/10/12 13:15:47;;;;;;;9.95;1.90;;;16.20;99.90;;;;;;5003344;28;20045;-54
2023/10/12 13:18:16;;;;;;;7.57;1.45;;;16.30;99.90;;;;;;5006011;28;20117;-58
2023/10/12 13:20:49;;;;;;;13.70;2.28;;;16.20;99.90;;;;;;5005842;28;20073;-57
2023/10/12 13:23:17;;;;;;;9.63;1.90;;;16.20;99.90;;;;;;4989637;28;20050;-57
2023/10/12 13:25:44;;;;;;;9.52;2.55;;;16.20;99.90;;;;;;4987891;28;20042;-57
2023/10/12 13:28:10;;;;;;;6.97;1.88;;;16.20;99.90;;;;;;4989655;28;20042;-57
2023/10/12 13:30:37;;;;;;;10.75;2.38;;;16.20;99.90;;;;;;5002709;28;20044;-57
2023/10/12 13:33:05;;;;;;;9.70;2.38;;;16.20;99.90;;;;;;5004813;28;20073;-59
2023/10/12 13:35:36;;;;;;;8.38;1.50;;;16.10;99.90;;;;;;5004474;28;20038;-58
2023/10/12 13:38:03;;;;;;;6.82;1.88;;;16.10;99.90;;;;;;4982781;28;20117;-59
2023/10/12 13:40:30;;;;;;;12.32;2.38;;;16.10;99.90;;;;;;5001736;28;20061;-58
2023/10/12 13:43:06;;;;;;;8.63;1.85;;;15.90;99.90;;;;;;5004796;28;20571;-58
2023/10/12 13:45:33;;;;;;;9.32;2.05;;;15.90;99.90;;;;;;5002365;28;20119;-58
2023/10/12 13:47:59;;;;;;;9.95;2.20;;;15.90;99.90;;;;;;5001883;28;20050;-58
2023/10/12 13:50:24;;;;;;;7.88;1.60;;;15.90;99.90;;;;;;5003298;28;20546;-59
2023/10/12 13:52:50;;;;;;;10.30;2.03;;;15.90;99.90;;;;;;4987963;28;20045;-58
2023/10/12 13:55:16;;;;;;;7.85;1.73;;;15.90;99.90;;;;;;4973101;28;20084;-58
2023/10/12 13:57:55;;;;;;;8.23;2.00;;;15.90;99.90;;;;;;4972638;28;20048;-57
2023/10/12 14:00:25;;;;;;;9.77;2.80;;;15.80;99.90;;;;;;4988830;28;20041;-58
2023/10/12 14:02:57;;;;;;;9.48;1.60;;;15.80;99.90;;;;;;5005379;28;20046;-57
2023/10/12 14:05:27;;;;;;;10.43;1.83;;;15.80;99.90;;;;;;4985693;28;20038;-57
2023/10/12 14:08:00;;;;;;;7.00;1.90;;;15.80;99.90;;;;;;5001328;28;20460;-57
2023/10/12 14:10:27;;;;;;;10.70;1.98;;;15.80;99.90;;;;;;4987269;28;20520;-57
2023/10/12 14:12:53;;;;;;;8.20;2.35;;;15.70;99.90;;;;;;5004110;28;20069;-56
2023/10/12 14:15:26;;;;;;;7.50;2.10;;;15.70;99.90;;;;;;5003493;28;20065;-56
2023/10/12 14:17:54;;;;;;;7.40;1.88;;;15.70;99.90;;;;;;5002246;28;20042;-57
2023/10/12 14:20:26;;;;;;;11.20;2.05;;;15.60;99.90;;;;;;5004315;28;20049;-57
2023/10/12 14:23:07;;;;;;;10.20;2.08;;;15.60;99.90;;;;;;5003951;28;20427;-57
2023/10/12 14:25:38;;;;;;;7.88;1.80;;;15.50;99.90;;;;;;4998164;28;20087;-58
2023/10/12 14:28:06;;;;;;;10.68;2.70;;;15.40;99.90;;;;;;4998372;28;20053;-57
2023/10/12 14:30:36;;;;;;;12.00;2.22;;;15.40;99.90;;;;;;4987273;28;20053;-56
2023/10/12 14:33:03;;;;;;;8.82;1.95;;;15.30;99.90;;;;;;5004097;28;20085;-55
2023/10/12 14:35:35;;;;;;;8.43;2.13;;;15.10;99.90;;;;;;5003219;28;20038;-58
2023/10/12 14:38:02;;;;;;;11.10;2.00;;;15.10;99.90;;;;;;5005537;28;20475;-55
2023/10/12 14:40:32;;;;;;;9.45;1.83;;;14.90;99.90;;;;;;5005373;28;20070;-58
2023/10/12 14:43:05;;;;;;;10.48;2.40;;;14.90;99.90;;;;;;5004819;28;20042;-56
2023/10/12 14:45:38;;;;;;;10.50;2.17;;;14.80;99.90;;;;;;5004690;28;20188;-58
2023/10/12 14:48:10;;;;;;;8.57;1.88;;;14.70;99.90;;;;;;5005458;28;20052;-57
2023/10/12 14:50:45;;;;;;;8.88;1.80;;;14.70;99.90;;;;;;4988252;28;20083;-58
2023/10/12 14:53:15;;;;;;;10.27;1.80;;;14.70;99.90;;;;;;5005718;28;20042;-58
2023/10/12 14:55:42;;;;;;;9.65;1.85;;;14.60;99.90;;;;;;4991595;28;20677;-57
2023/10/12 14:58:09;;;;;;;16.40;2.45;;;14.60;99.90;;;;;;5009544;28;20061;-56
2023/10/12 15:00:36;;;;;;;9.00;2.08;;;14.60;99.90;;;;;;5006600;28;20042;-57
2023/10/12 15:03:06;;;;;;;8.45;2.08;;;14.50;99.90;;;;;;5005063;28;20073;-57
2023/10/12 15:05:36;;;;;;;14.70;1.98;;;14.50;99.90;;;;;;5002126;28;20133;-56
2023/10/12 15:08:06;;;;;;;8.48;1.90;;;14.40;99.90;;;;;;5016121;28;20046;-57
2023/10/12 15:10:43;;;;;;;7.63;1.55;;;14.40;99.90;;;;;;5007208;28;20088;-57
2023/10/12 15:13:11;;;;;;;10.65;1.88;;;14.40;99.90;;;;;;5023278;28;20042;-57
2023/10/12 15:15:45;;;;;;;15.95;2.40;;;14.30;99.90;;;;;;5009041;28;20046;-58
2023/10/12 15:18:13;;;;;;;8.90;1.95;;;14.20;99.90;;;;;;5007801;28;20515;-58
2023/10/12 15:20:40;;;;;;;12.07;2.45;;;14.30;99.90;;;;;;5008764;28;20669;-58
2023/10/12 15:23:12;;;;;;;5.88;1.77;;;14.20;99.90;;;;;;5008008;28;20505;-58
2023/10/12 15:25:37;;;;;;;11.38;2.00;;;14.30;99.90;;;;;;5003889;28;20045;-58
2023/10/12 15:28:04;;;;;;;10.45;2.78;;;14.30;99.90;;;;;;5006677;28;20038;-58